Camden, IN (46917)

5:14 PM EST on December 27, 2014 (GMT -0500)
Carroll Jr/Sr High School | Change Station
CLOSE
Current Station
Personal Weather Station
Location: Flora, IN
Elevation: 715 ft
Nearby Weather Stations

Elev 715 ft 40.55 °N, 86.48 °W | Updated 1 minute ago

Overcast
Overcast
42.6 °F
Feels Like 39 °F
N
6.4
Wind Variable Wind from West
Gusts 15.7 mph

Today
High -- | Low -- °F
--% Chance of Precip.
Yesterday
High -- | Low -- °F
Precip. -- in
8:08 AM 5:25 PM
Waxing Crescent, 40% visible
Pressure 30.08 in
Visibility 3.0 miles
Clouds Overcast 400 ft
Windchill 39 °F
Dew Point 39 °F
Humidity 88%
Rainfall 0.00 in
Snow Depth Not available.
UV 0 out of 12
Pollen .10 out of 12
Air Quality Not available.
Flu Activity Not available.
METAR KGGP 272155Z AUTO 27010KT 3SM BR OVC004 05/03 A3008 RMK AO2

More Conditions Fewer Conditions

Pressure 30.08 in
Visibility 3.0 miles
Clouds Overcast 400 ft
Windchill 39 °F
Dew Point 39 °F
Humidity 88%
Rainfall 0.00 in
Snow Depth Not available.
UV 0 out of 12
Pollen .10 out of 12
Air Quality Not available.
Flu Activity Not available.
METAR KGGP 272155Z AUTO 27010KT 3SM BR OVC004 05/03 A3008 RMK AO2

More Conditions Fewer Conditions

10-Day Weather Forecast

Almanac

Astronomy

Dec. 27, 2014 Rise Set
Actual Time
Civil Twilight
Nautical Twilight
Astronomical Twilight
Moon
Length of Visible Light
Length of Day
Tomorrow will be .
, % of the Moon is Illuminated

Today's Extremes

State Highs State Lows

Community

WunderPhotos

Upload Photos

1,781,090 photos uploaded!

WunderBlogs® & News

Nearby

Air Quality

  Air Quality AQ Index Pollutant
Not available.

Snow Depth

Station Depth Elevation

Earthquake Activity

City Distance Mag. Time & Date
Minimum magnitude displayed is 2.5.

Coastal Water Temperatures

Place Temperature

Nearby Weather Stations